Etusivu
METAR-TAF:

METAR-TAF

Lentoasemat :

Nouakchott, Mauritania

Nouakchottin kansainvälinen lentoasema

Leveyspiiri: 18-18-36N, Pituuspiiri: 015-58-11W, korkeus merenpinnasta: 3 m

Tämänhetkinen sää

Tämä raportti tehtiin 22 minuuttia sitten, kello 10.00 UTC
Tuuli 11 kn pohjoisesta
Lämpötila 29°C
Kosteus 37%
Ilmanpaine 1013 hPa
Näkyvyys: 8000 m

METAR: GQNO 281000Z 36011KT 8000 NSC 29/13 Q1013 NOSIG

Aika: 10:22 (10:22 UTC)

Sääennuste

Tämä raportti tehtiin 5 tuntia ja 22 minuuttia sitten, kello 05.00 UTC
Ennuste voimassa 28. päivästä klo 06 UTC - 29. päivään klo 12 UTC
Tuuli 12 kn pohjoisen/luoteesta
Näkyvyys: 7000 m

TAF: GQNO 280500Z 2806/2912 34012KT 7000 NSC

Säähavainnot ja -ennusteet yli 4000 lentoasemalta (METAR- ja TAF-raportit).

Käytössä olevat sääasemat on merkitty karttaan keltaisilla ja punaisilla pisteillä.

Aseta hiiri pisteen päälle nähdäksesi sääaseman nimen.

Klikkaa sitten nähdäksesi säähavainnot ja -ennusteet.

Kartan vaihtaminen: klikkaa mustalla rastilla varustettuja vihreitä pisteitä, niin voit zoomata sisään; viivalla varustettua vihreää pistettä, niin voit zoomata ulos tai vihreitä nuolia, niin pääset viereisille kartoille.


METAR-TAF: